createdAt,value
2018-01-17T00:02:05.662Z,1.02
2018-01-17T00:04:33.877Z,0.70
2018-01-17T00:07:03.039Z,0.70
2018-01-17T00:09:31.220Z,1.10
2018-01-17T00:12:00.627Z,0.80
2018-01-17T00:14:30.315Z,1.33
2018-01-17T00:16:59.761Z,0.87
2018-01-17T00:19:28.315Z,1.55
2018-01-17T00:21:56.488Z,0.80
2018-01-17T00:24:25.855Z,1.10
2018-01-17T00:26:55.768Z,0.65
2018-01-17T00:29:24.250Z,0.67
2018-01-17T00:31:52.820Z,0.70
2018-01-17T00:34:21.755Z,0.68
2018-01-17T00:36:51.151Z,1.08
2018-01-17T00:39:20.136Z,0.68
2018-01-17T00:41:49.428Z,1.10
2018-01-17T00:44:17.939Z,0.68
2018-01-17T00:46:46.864Z,0.70
2018-01-17T00:49:16.088Z,0.80
2018-01-17T00:51:44.638Z,0.90
2018-01-17T00:54:13.425Z,1.23
2018-01-17T00:56:42.509Z,1.17
2018-01-17T00:59:10.927Z,0.80
2018-01-17T01:01:40.081Z,0.82
2018-01-17T01:04:09.130Z,1.17
2018-01-17T01:06:38.473Z,0.80
2018-01-17T01:09:08.044Z,1.02
2018-01-17T01:11:36.917Z,0.80
2018-01-17T01:14:05.396Z,1.25
2018-01-17T01:16:34.077Z,0.85
2018-01-17T01:19:02.640Z,1.00
2018-01-17T01:21:31.737Z,1.17
2018-01-17T01:24:00.475Z,0.90
2018-01-17T01:26:29.663Z,1.20
2018-01-17T01:28:58.765Z,2.05
2018-01-17T01:31:27.283Z,1.17
2018-01-17T01:33:56.300Z,0.97
2018-01-17T01:36:26.619Z,0.50
2018-01-17T01:38:55.234Z,0.68
2018-01-17T01:41:24.709Z,0.70
2018-01-17T01:43:52.977Z,0.80
2018-01-17T01:46:23.257Z,1.10
2018-01-17T01:48:51.741Z,0.90
2018-01-17T01:51:20.928Z,0.90
2018-01-17T01:53:49.393Z,0.90
2018-01-17T01:56:18.817Z,1.30
2018-01-17T01:58:48.613Z,0.80
2018-01-17T02:01:18.622Z,0.80
2018-01-17T02:03:48.995Z,0.90
2018-01-17T02:06:17.474Z,0.80
2018-01-17T02:08:46.315Z,1.17
2018-01-17T02:11:15.618Z,0.85
2018-01-17T02:13:44.258Z,0.80
2018-01-17T02:16:13.012Z,0.93
2018-01-17T02:18:41.824Z,0.90
2018-01-17T02:21:10.569Z,0.60
2018-01-17T02:23:39.573Z,0.70
2018-01-17T02:26:07.956Z,0.40
2018-01-17T02:28:36.326Z,0.40
2018-01-17T02:31:06.312Z,0.40
2018-01-17T02:33:35.066Z,0.40
2018-01-17T02:36:04.204Z,0.52
2018-01-17T02:38:32.808Z,0.60
2018-01-17T02:41:01.721Z,0.60
2018-01-17T02:43:30.824Z,0.40
2018-01-17T02:45:59.551Z,0.55
2018-01-17T02:48:28.618Z,0.40
2018-01-17T02:50:57.638Z,0.43
2018-01-17T02:53:27.450Z,0.60
2018-01-17T02:55:56.039Z,0.50
2018-01-17T02:58:25.150Z,0.40
2018-01-17T03:00:53.500Z,0.70
2018-01-17T03:03:22.496Z,0.75
2018-01-17T03:05:51.261Z,0.90
2018-01-17T03:08:20.374Z,0.45
2018-01-17T03:10:50.005Z,0.50
2018-01-17T03:13:19.771Z,0.40
2018-01-17T03:15:48.593Z,0.40
2018-01-17T03:18:18.207Z,0.40
2018-01-17T03:20:47.283Z,0.40
2018-01-17T03:23:16.877Z,0.82
2018-01-17T03:25:46.150Z,0.40
2018-01-17T03:28:15.488Z,1.00
2018-01-17T03:30:44.880Z,0.30
2018-01-17T03:33:14.094Z,0.40
2018-01-17T03:35:43.326Z,0.47
2018-01-17T03:38:12.733Z,0.47
2018-01-17T03:40:42.621Z,0.50
2018-01-17T03:43:11.319Z,0.50
2018-01-17T03:45:39.766Z,0.73
2018-01-17T03:48:08.211Z,0.40
2018-01-17T03:50:37.650Z,0.60
2018-01-17T03:53:06.873Z,0.40
2018-01-17T03:55:35.574Z,0.50
2018-01-17T03:58:04.703Z,0.50
2018-01-17T04:00:37.968Z,0.70
2018-01-17T04:03:08.075Z,0.57
2018-01-17T04:05:37.256Z,0.40
2018-01-17T04:08:05.642Z,0.30
2018-01-17T04:10:34.155Z,0.50
2018-01-17T04:13:03.590Z,0.52
2018-01-17T04:15:32.087Z,0.50
2018-01-17T04:18:01.853Z,0.80
2018-01-17T04:20:30.941Z,0.70
2018-01-17T04:23:00.061Z,0.70
2018-01-17T04:25:28.941Z,0.70
2018-01-17T04:27:57.893Z,0.70
2018-01-17T04:30:27.119Z,0.85
2018-01-17T04:32:55.916Z,0.70
2018-01-17T04:35:24.761Z,0.57
2018-01-17T04:37:54.135Z,0.52
2018-01-17T04:40:22.614Z,0.70
2018-01-17T04:42:50.919Z,0.93
2018-01-17T04:45:19.277Z,1.00
2018-01-17T04:47:47.481Z,1.00
2018-01-17T04:50:16.239Z,1.00
2018-01-17T04:52:44.984Z,1.00
2018-01-17T04:55:13.181Z,0.95
2018-01-17T04:57:42.714Z,0.75
2018-01-17T05:00:11.795Z,1.10
2018-01-17T05:02:41.509Z,0.80
2018-01-17T05:05:10.332Z,1.12
2018-01-17T05:07:40.021Z,1.00
2018-01-17T05:10:08.396Z,0.80
2018-01-17T05:12:37.402Z,0.60
2018-01-17T05:15:06.460Z,0.60
2018-01-17T05:17:34.688Z,0.90
2018-01-17T05:20:03.337Z,0.80
2018-01-17T05:22:32.939Z,0.90
2018-01-17T05:25:03.717Z,0.55
2018-01-17T05:27:33.027Z,1.00
2018-01-17T05:30:02.816Z,1.20
2018-01-17T05:32:32.194Z,0.82
2018-01-17T05:35:00.462Z,0.70
2018-01-17T05:37:29.884Z,0.88
2018-01-17T05:39:58.452Z,1.02
2018-01-17T05:42:26.954Z,0.70
2018-01-17T05:44:55.346Z,1.12
2018-01-17T05:47:24.412Z,0.65
2018-01-17T05:49:53.294Z,0.85
2018-01-17T05:52:22.350Z,0.82
2018-01-17T05:54:50.792Z,0.60
2018-01-17T05:57:20.393Z,1.10
2018-01-17T05:59:49.553Z,1.00
2018-01-17T06:02:18.086Z,1.05
2018-01-17T06:04:47.124Z,1.12
2018-01-17T06:07:16.311Z,0.70
2018-01-17T06:09:47.143Z,1.77
2018-01-17T06:12:16.175Z,1.50
2018-01-17T06:14:45.641Z,1.10
2018-01-17T06:17:14.128Z,1.00
2018-01-17T06:19:43.195Z,0.70
2018-01-17T06:22:12.134Z,1.30
2018-01-17T06:24:40.878Z,1.20
2018-01-17T06:27:09.963Z,1.20
2018-01-17T06:29:38.191Z,1.08
2018-01-17T06:32:07.827Z,1.00
2018-01-17T06:34:37.760Z,1.05
2018-01-17T06:37:07.576Z,1.87
2018-01-17T06:39:37.253Z,1.25
2018-01-17T06:42:05.970Z,1.83
2018-01-17T06:44:35.436Z,1.20
2018-01-17T06:47:04.237Z,1.10
2018-01-17T06:49:33.692Z,1.27
2018-01-17T06:52:02.493Z,1.10
2018-01-17T06:54:32.159Z,0.80
2018-01-17T06:57:00.765Z,1.17
2018-01-17T06:59:29.825Z,0.82
2018-01-17T07:01:58.724Z,1.20
2018-01-17T07:04:27.756Z,0.95
2018-01-17T07:06:57.317Z,0.77
2018-01-17T07:09:26.622Z,0.62
2018-01-17T07:11:56.661Z,0.90
2018-01-17T07:14:25.566Z,0.60
2018-01-17T07:16:54.245Z,0.70
2018-01-17T07:19:23.749Z,0.90
2018-01-17T07:21:51.952Z,0.70
2018-01-17T07:24:24.521Z,1.08
2018-01-17T07:26:54.556Z,0.73
2018-01-17T07:29:23.217Z,1.15
2018-01-17T07:31:54.725Z,0.90
2018-01-17T07:34:23.571Z,0.70
2018-01-17T07:36:52.653Z,0.65
2018-01-17T07:39:21.893Z,0.52
2018-01-17T07:41:50.626Z,1.15
2018-01-17T07:44:19.971Z,1.30
2018-01-17T07:46:48.812Z,1.05
2018-01-17T07:49:17.339Z,0.80
2018-01-17T07:51:45.839Z,0.90
2018-01-17T07:54:14.990Z,1.15
2018-01-17T07:56:45.453Z,0.60
2018-01-17T07:59:14.777Z,0.50
2018-01-17T08:01:44.433Z,1.52
2018-01-17T08:04:14.040Z,4.28
2018-01-17T08:06:43.625Z,0.77
2018-01-17T08:09:12.446Z,1.40
2018-01-17T08:11:41.018Z,0.80
2018-01-17T08:14:10.248Z,0.57
2018-01-17T08:16:39.318Z,1.00
2018-01-17T08:19:08.064Z,0.93
2018-01-17T08:21:36.715Z,0.60
2018-01-17T08:24:05.556Z,1.08
2018-01-17T08:26:34.589Z,0.93
2018-01-17T08:29:04.049Z,0.73
2018-01-17T08:31:33.662Z,0.50
2018-01-17T08:34:02.289Z,1.12
2018-01-17T08:36:31.158Z,1.08
2018-01-17T08:39:00.732Z,2.60
2018-01-17T08:41:30.141Z,0.80
2018-01-17T08:43:58.827Z,1.52
2018-01-17T08:46:27.391Z,1.30
2018-01-17T08:48:56.168Z,1.20
2018-01-17T08:51:25.409Z,1.77
2018-01-17T08:53:54.711Z,1.30
2018-01-17T08:56:24.060Z,1.50
2018-01-17T08:58:53.040Z,0.90
2018-01-17T09:01:22.129Z,1.75
2018-01-17T09:03:51.668Z,1.37
2018-01-17T09:06:20.967Z,1.20
2018-01-17T09:08:49.511Z,1.08
2018-01-17T09:11:18.164Z,1.25
2018-01-17T09:13:46.894Z,1.37
2018-01-17T09:16:15.947Z,1.23
2018-01-17T09:18:44.971Z,0.80
2018-01-17T09:21:13.934Z,0.93
2018-01-17T09:23:42.553Z,1.20
2018-01-17T09:26:10.669Z,1.02
2018-01-17T09:28:39.417Z,1.08
2018-01-17T09:31:08.368Z,1.67
2018-01-17T09:33:37.528Z,0.50
2018-01-17T09:36:06.549Z,0.93
2018-01-17T09:38:34.979Z,0.98
2018-01-17T09:41:04.543Z,1.05
2018-01-17T09:43:33.982Z,1.10
2018-01-17T09:46:03.788Z,1.10
2018-01-17T09:48:32.261Z,0.77
2018-01-17T09:51:00.998Z,0.60
2018-01-17T09:53:29.901Z,1.67
2018-01-17T09:55:58.608Z,1.50
2018-01-17T09:58:28.286Z,2.90
2018-01-17T10:00:57.232Z,1.95
2018-01-17T10:03:25.657Z,0.70
2018-01-17T10:05:54.826Z,0.60
2018-01-17T10:08:24.870Z,1.02
2018-01-17T10:10:54.098Z,1.30
2018-01-17T10:13:23.742Z,0.68
2018-01-17T10:15:52.931Z,1.00
2018-01-17T10:18:21.985Z,1.08
2018-01-17T10:20:51.698Z,1.70
2018-01-17T10:23:19.965Z,1.02
2018-01-17T10:25:48.662Z,0.93
2018-01-17T10:28:17.963Z,0.67
2018-01-17T10:30:46.909Z,0.90
2018-01-17T10:33:15.372Z,0.90
2018-01-17T10:35:44.167Z,0.97
2018-01-17T10:38:12.487Z,0.73
2018-01-17T10:40:41.335Z,0.97
2018-01-17T10:43:09.877Z,1.23
2018-01-17T10:45:38.656Z,0.80
2018-01-17T10:48:08.167Z,0.70
2018-01-17T10:50:36.612Z,0.90
2018-01-17T10:53:07.257Z,0.90
2018-01-17T10:55:35.841Z,0.97
2018-01-17T10:58:05.616Z,1.27
2018-01-17T11:00:35.401Z,1.07
2018-01-17T11:03:04.288Z,1.27
2018-01-17T11:05:33.232Z,0.80
2018-01-17T11:08:02.225Z,1.00
2018-01-17T11:10:31.069Z,0.55
2018-01-17T11:13:00.114Z,0.50
2018-01-17T11:15:29.300Z,0.50
2018-01-17T11:17:58.621Z,0.60
2018-01-17T11:20:27.419Z,0.65
2018-01-17T11:22:56.124Z,0.73
2018-01-17T11:25:24.946Z,0.60
2018-01-17T11:27:53.561Z,0.50
2018-01-17T11:30:22.957Z,0.60
2018-01-17T11:32:51.369Z,0.70
2018-01-17T11:35:20.538Z,1.12
2018-01-17T11:37:50.049Z,0.73
2018-01-17T11:40:20.075Z,2.20
2018-01-17T11:42:48.284Z,0.62
2018-01-17T11:45:17.672Z,0.60
2018-01-17T11:47:46.137Z,2.50
2018-01-17T11:50:15.066Z,0.70
2018-01-17T11:52:43.717Z,0.95
2018-01-17T11:55:13.905Z,0.88
2018-01-17T11:57:43.303Z,0.70
2018-01-17T12:00:11.921Z,0.62
2018-01-17T12:02:40.868Z,1.02
2018-01-17T12:05:10.026Z,0.50
2018-01-17T12:07:38.555Z,0.80
2018-01-17T12:10:07.293Z,0.52
2018-01-17T12:12:35.525Z,0.98
2018-01-17T12:15:04.229Z,0.80
2018-01-17T12:17:33.964Z,0.90
2018-01-17T12:20:03.119Z,0.65
2018-01-17T12:22:32.031Z,1.00
2018-01-17T12:25:00.792Z,0.70
2018-01-17T12:27:29.819Z,1.02
2018-01-17T12:29:58.654Z,0.73
2018-01-17T12:32:27.482Z,0.90
2018-01-17T12:34:57.088Z,0.60
2018-01-17T12:37:25.991Z,0.60
2018-01-17T12:39:54.867Z,1.30
2018-01-17T12:42:24.476Z,0.95
2018-01-17T12:44:53.363Z,0.68
2018-01-17T12:47:22.428Z,1.12
2018-01-17T12:49:51.264Z,1.05
2018-01-17T12:52:19.504Z,0.93
2018-01-17T12:54:49.007Z,0.47
2018-01-17T12:57:17.991Z,0.85
2018-01-17T12:59:47.047Z,0.90
2018-01-17T13:02:15.933Z,1.00
2018-01-17T13:04:44.874Z,1.05
2018-01-17T13:07:13.501Z,1.10
2018-01-17T13:09:42.011Z,0.80
2018-01-17T13:12:11.100Z,0.73
2018-01-17T13:14:40.688Z,1.25
2018-01-17T13:17:09.292Z,1.40
2018-01-17T13:19:38.990Z,1.20
2018-01-17T13:22:07.571Z,1.37
2018-01-17T13:24:37.469Z,0.90
2018-01-17T13:27:07.730Z,1.08
2018-01-17T13:29:37.825Z,1.10
2018-01-17T13:32:06.081Z,0.80
2018-01-17T13:34:36.217Z,1.15
2018-01-17T13:37:05.920Z,1.02
2018-01-17T13:39:34.647Z,1.20
2018-01-17T13:42:03.414Z,1.10
2018-01-17T13:44:33.510Z,0.70
2018-01-17T13:47:02.413Z,1.00
2018-01-17T13:49:31.131Z,1.10
2018-01-17T13:52:00.819Z,1.80
2018-01-17T13:54:29.358Z,2.10
2018-01-17T13:56:59.166Z,1.77
2018-01-17T13:59:28.370Z,0.90
2018-01-17T14:01:58.884Z,1.30
2018-01-17T14:04:27.866Z,0.90
2018-01-17T14:06:56.791Z,0.87
2018-01-17T14:09:25.758Z,0.50
2018-01-17T14:11:55.102Z,1.20
2018-01-17T14:14:24.512Z,0.90
2018-01-17T14:16:53.918Z,0.90
2018-01-17T14:19:23.387Z,1.17
2018-01-17T14:21:51.947Z,1.20
2018-01-17T14:24:22.000Z,1.83
2018-01-17T14:26:50.416Z,1.40
2018-01-17T14:29:18.952Z,2.90
2018-01-17T14:31:47.489Z,2.67
2018-01-17T14:34:15.928Z,0.80
2018-01-17T14:36:44.770Z,1.37
2018-01-17T14:39:15.189Z,1.30
2018-01-17T14:41:43.936Z,0.80
2018-01-17T14:44:12.750Z,1.20
2018-01-17T14:46:41.663Z,1.17
2018-01-17T14:49:10.940Z,2.42
2018-01-17T14:51:39.607Z,0.90
2018-01-17T14:54:08.311Z,1.30
2018-01-17T14:56:36.905Z,0.80
2018-01-17T14:59:06.611Z,0.98
2018-01-17T15:01:35.154Z,1.20
2018-01-17T15:04:04.302Z,1.25
2018-01-17T15:06:32.850Z,1.23
2018-01-17T15:09:01.810Z,1.67
2018-01-17T15:11:32.434Z,1.00
2018-01-17T15:14:01.455Z,1.12
2018-01-17T15:16:30.782Z,1.25
2018-01-17T15:18:59.416Z,1.00
2018-01-17T15:21:28.090Z,1.00
2018-01-17T15:23:57.133Z,0.93
2018-01-17T15:26:26.747Z,0.90
2018-01-17T15:28:56.251Z,1.33
2018-01-17T15:31:25.680Z,1.40
2018-01-17T15:33:54.837Z,1.50
2018-01-17T15:36:23.613Z,0.90
2018-01-17T15:38:54.305Z,1.62
2018-01-17T15:41:22.782Z,2.50
2018-01-17T15:43:51.612Z,1.40
2018-01-17T15:46:20.428Z,1.15
2018-01-17T15:48:50.642Z,1.20
2018-01-17T15:51:20.664Z,1.25
2018-01-17T15:53:49.729Z,2.85
2018-01-17T15:56:18.252Z,0.93
2018-01-17T15:58:48.022Z,1.05
2018-01-17T16:01:16.789Z,1.15
2018-01-17T16:03:46.408Z,1.73
2018-01-17T16:06:15.233Z,1.62
2018-01-17T16:08:44.135Z,1.77
2018-01-17T16:11:12.842Z,1.50
2018-01-17T16:13:42.348Z,1.50
2018-01-17T16:16:11.754Z,1.23
2018-01-17T16:18:40.226Z,1.37
2018-01-17T16:21:08.871Z,1.25
2018-01-17T16:23:37.489Z,1.35
2018-01-17T16:26:06.759Z,1.40
2018-01-17T16:28:36.747Z,1.30
2018-01-17T16:31:06.772Z,1.92
2018-01-17T16:33:36.571Z,2.28
2018-01-17T16:36:05.681Z,1.90
2018-01-17T16:38:34.236Z,2.00
2018-01-17T16:41:03.521Z,2.33
2018-01-17T16:43:32.367Z,2.30
2018-01-17T16:46:00.556Z,1.60
2018-01-17T16:48:29.691Z,1.50
2018-01-17T16:51:02.256Z,1.50
2018-01-17T16:53:31.061Z,1.12
2018-01-17T16:56:00.236Z,1.77
2018-01-17T16:58:29.351Z,1.83
2018-01-17T17:00:58.450Z,2.05
2018-01-17T17:03:27.512Z,1.75
2018-01-17T17:05:57.458Z,1.90
2018-01-17T17:08:26.686Z,2.20
2018-01-17T17:10:55.342Z,2.60
2018-01-17T17:13:25.375Z,1.58
2018-01-17T17:15:55.249Z,2.72
2018-01-17T17:18:24.224Z,2.47
2018-01-17T17:20:52.632Z,2.80
2018-01-17T17:23:22.067Z,1.98
2018-01-17T17:25:50.616Z,2.30
2018-01-17T17:28:19.453Z,1.83
2018-01-17T17:30:47.607Z,1.65
2018-01-17T17:33:16.644Z,4.05
2018-01-17T17:35:45.826Z,2.20
2018-01-17T17:38:15.253Z,2.20
2018-01-17T17:40:44.784Z,2.70
2018-01-17T17:43:13.500Z,2.75
2018-01-17T17:45:43.177Z,2.90
2018-01-17T17:48:11.545Z,1.95
2018-01-17T17:50:40.856Z,1.92
2018-01-17T17:53:09.601Z,2.53
2018-01-17T17:55:37.893Z,2.90
2018-01-17T17:58:06.885Z,2.67
2018-01-17T18:00:35.664Z,2.42
2018-01-17T18:03:03.936Z,2.85
2018-01-17T18:05:32.812Z,2.20
2018-01-17T18:08:02.122Z,2.08
2018-01-17T18:10:32.143Z,3.47
2018-01-17T18:13:01.323Z,2.70
2018-01-17T18:15:30.442Z,2.65
2018-01-17T18:17:59.204Z,3.15
2018-01-17T18:20:27.720Z,2.83
2018-01-17T18:22:56.860Z,2.10
2018-01-17T18:25:25.789Z,2.50
2018-01-17T18:27:54.480Z,2.45
2018-01-17T18:30:23.842Z,2.60
2018-01-17T18:32:52.428Z,2.45
2018-01-17T18:35:21.921Z,1.87
2018-01-17T18:37:50.607Z,2.15
2018-01-17T18:40:19.090Z,2.08
2018-01-17T18:42:48.005Z,2.17
2018-01-17T18:45:17.847Z,2.45
2018-01-17T18:47:46.390Z,2.05
2018-01-17T18:50:16.295Z,2.10
2018-01-17T18:52:45.619Z,2.40
2018-01-17T18:55:13.896Z,2.00
2018-01-17T18:57:42.366Z,1.85
2018-01-17T19:00:11.798Z,2.67
2018-01-17T19:02:40.988Z,2.15
2018-01-17T19:05:09.915Z,2.33
2018-01-17T19:07:38.409Z,1.87
2018-01-17T19:10:07.617Z,2.00
2018-01-17T19:12:36.823Z,2.05
2018-01-17T19:15:06.144Z,1.50
2018-01-17T19:17:34.957Z,1.70
2018-01-17T19:20:04.826Z,2.53
2018-01-17T19:22:33.910Z,1.80
2018-01-17T19:25:03.264Z,1.87
2018-01-17T19:27:32.005Z,2.60
2018-01-17T19:30:01.298Z,2.80
2018-01-17T19:32:31.511Z,2.50
2018-01-17T19:35:02.139Z,2.05
2018-01-17T19:37:30.774Z,1.95
2018-01-17T19:39:59.185Z,2.50
2018-01-17T19:42:27.836Z,2.92
2018-01-17T19:44:57.495Z,2.22
2018-01-17T19:47:26.730Z,2.15
2018-01-17T19:49:56.378Z,1.92
2018-01-17T19:52:26.913Z,1.55
2018-01-17T19:54:55.937Z,2.15
2018-01-17T19:57:24.664Z,2.58
2018-01-17T19:59:53.247Z,2.75
2018-01-17T20:02:23.588Z,2.10
2018-01-17T20:04:52.495Z,1.70
2018-01-17T20:07:22.345Z,1.55
2018-01-17T20:09:51.893Z,2.47
2018-01-17T20:12:20.410Z,1.60
2018-01-17T20:14:49.743Z,2.47
2018-01-17T20:17:18.862Z,1.75
2018-01-17T20:19:47.737Z,1.45
2018-01-17T20:22:17.109Z,1.37
2018-01-17T20:24:46.167Z,1.30
2018-01-17T20:27:16.112Z,1.48
2018-01-17T20:29:45.445Z,1.85
2018-01-17T20:32:14.168Z,2.65
2018-01-17T20:34:42.795Z,1.92
2018-01-17T20:37:13.426Z,1.52
2018-01-17T20:39:42.291Z,2.15
2018-01-17T20:42:11.680Z,2.28
2018-01-17T20:44:40.861Z,2.58
2018-01-17T20:47:09.970Z,2.15
2018-01-17T20:49:38.871Z,2.40
2018-01-17T20:52:07.888Z,2.45
2018-01-17T20:54:37.341Z,3.40
2018-01-17T20:57:06.103Z,2.30
2018-01-17T20:59:34.946Z,1.83
2018-01-17T21:02:03.694Z,2.25
2018-01-17T21:04:32.876Z,2.75
2018-01-17T21:07:01.617Z,1.33
2018-01-17T21:09:30.294Z,2.45
2018-01-17T21:11:58.624Z,2.10
2018-01-17T21:14:27.103Z,1.95
2018-01-17T21:16:55.330Z,1.15
2018-01-17T21:19:24.898Z,1.75
2018-01-17T21:21:53.970Z,1.80
2018-01-17T21:24:22.614Z,2.20
2018-01-17T21:26:52.292Z,1.20
2018-01-17T21:29:21.587Z,1.77
2018-01-17T21:31:50.480Z,1.75
2018-01-17T21:34:19.209Z,2.20
2018-01-17T21:36:47.846Z,2.40
2018-01-17T21:39:17.573Z,1.67
2018-01-17T21:41:46.497Z,2.80
2018-01-17T21:44:15.885Z,2.58
2018-01-17T21:46:44.804Z,3.08
2018-01-17T21:49:14.395Z,2.70
2018-01-17T21:51:43.434Z,2.40
2018-01-17T21:54:11.731Z,2.30
2018-01-17T21:56:40.749Z,2.75
2018-01-17T21:59:09.648Z,3.47
2018-01-17T22:01:38.481Z,2.62
2018-01-17T22:04:07.355Z,2.45
2018-01-17T22:06:36.126Z,2.97
2018-01-17T22:09:05.164Z,2.53
2018-01-17T22:11:33.638Z,3.50
2018-01-17T22:14:02.412Z,2.28
2018-01-17T22:16:31.978Z,2.58
2018-01-17T22:19:01.390Z,2.72
2018-01-17T22:21:30.443Z,2.42
2018-01-17T22:23:58.665Z,2.97
2018-01-17T22:26:28.133Z,3.42
2018-01-17T22:28:57.554Z,2.42
2018-01-17T22:31:26.505Z,2.80
2018-01-17T22:33:55.507Z,3.03
2018-01-17T22:36:25.169Z,2.85
2018-01-17T22:38:54.051Z,2.00
2018-01-17T22:41:22.215Z,1.50
2018-01-17T22:43:51.786Z,2.40
2018-01-17T22:46:22.101Z,2.33
2018-01-17T22:48:50.598Z,2.95
2018-01-17T22:51:18.866Z,2.40
2018-01-17T22:53:47.781Z,2.00
2018-01-17T22:56:16.897Z,1.65
2018-01-17T22:58:46.063Z,1.98
2018-01-17T23:01:14.748Z,3.00
2018-01-17T23:03:44.169Z,1.92
2018-01-17T23:06:13.083Z,1.90
2018-01-17T23:08:42.185Z,1.95
2018-01-17T23:11:11.659Z,1.90
2018-01-17T23:13:40.162Z,1.80
2018-01-17T23:16:09.327Z,1.50
2018-01-17T23:18:38.138Z,1.37
2018-01-17T23:21:07.049Z,1.50
2018-01-17T23:23:36.915Z,2.00
2018-01-17T23:26:05.465Z,1.60
2018-01-17T23:28:33.610Z,1.23
2018-01-17T23:31:01.897Z,1.77
2018-01-17T23:33:30.238Z,2.67
2018-01-17T23:35:59.185Z,1.27
2018-01-17T23:38:28.105Z,2.10
2018-01-17T23:40:56.764Z,1.50
2018-01-17T23:43:25.407Z,1.92
2018-01-17T23:45:53.599Z,1.83
2018-01-17T23:48:22.322Z,2.20
2018-01-17T23:50:51.807Z,1.40
2018-01-17T23:53:20.226Z,2.60
2018-01-17T23:55:48.651Z,1.80
2018-01-17T23:58:17.814Z,2.67
